Time;durP1;ratioP1;P1;durP2;ratioP2;P2;SDS_P1;SDS_P2;PMS_P1;PMS_P2;Temp;Humidity;BMP_temperature;BMP_pressure;BME280_temperature;BME280_humidity;BME280_pressure;Samples;Min_cycle;Max_cycle;Signal;HPM_P1;HPM_P2
2023/04/26 00:02:42;;;;;;;10.13;3.97;;;;;;;5.88;86.82;100885.16;8257638;28;20037;-63
2023/04/26 00:06:42;;;;;;;11.98;3.20;;;;;;;5.72;88.16;100879.06;8258315;28;20042;-58
2023/04/26 00:10:43;;;;;;;7.38;3.40;;;;;;;5.70;88.75;100889.00;8258643;28;20435;-58
2023/04/26 00:14:43;;;;;;;12.80;3.30;;;;;;;5.44;88.79;100887.19;8257844;28;20061;-58
2023/04/26 00:18:45;;;;;;;16.55;4.72;;;;;;;5.42;89.53;100886.41;8259498;28;20065;-58
2023/04/26 00:22:45;;;;;;;9.98;4.68;;;;;;;5.59;91.04;100880.81;8258902;28;20389;-58
2023/04/26 00:26:45;;;;;;;9.55;4.05;;;;;;;5.14;91.98;100879.28;8257073;28;20124;-58
2023/04/26 00:30:47;;;;;;;14.05;4.28;;;;;;;4.91;93.94;100871.00;8258490;28;20085;-58
2023/04/26 00:34:48;;;;;;;10.60;3.17;;;;;;;4.88;94.06;100881.91;8257441;28;20040;-58
2023/04/26 00:38:51;;;;;;;8.63;3.58;;;;;;;4.75;94.64;100867.53;8258997;28;20049;-58
2023/04/26 00:42:57;;;;;;;14.60;4.43;;;;;;;4.65;95.68;100869.06;8258572;28;20053;-58
2023/04/26 00:46:57;;;;;;;13.85;3.58;;;;;;;4.70;95.63;100866.97;8257185;28;20042;-58
2023/04/26 00:50:58;;;;;;;10.48;4.32;;;;;;;4.81;95.67;100865.34;8258143;28;20050;-59
2023/04/26 00:54:58;;;;;;;8.80;3.85;;;;;;;4.75;95.98;100871.06;8258531;28;20038;-59
2023/04/26 00:58:59;;;;;;;9.07;3.70;;;;;;;4.87;95.93;100874.81;8258574;28;20042;-62
2023/04/26 01:03:00;;;;;;;8.43;3.15;;;;;;;4.99;95.45;100880.25;8257437;28;20039;-61
2023/04/26 01:07:00;;;;;;;11.90;3.58;;;;;;;4.50;97.40;100870.00;8258004;28;20133;-61
2023/04/26 01:11:01;;;;;;;5.60;3.42;;;;;;;4.50;98.90;100876.22;8257473;28;20536;-62
2023/04/26 01:15:02;;;;;;;12.68;4.07;;;;;;;4.17;99.51;100874.75;8257843;28;20042;-62
2023/04/26 01:19:11;;;;;;;18.00;4.38;;;;;;;4.02;100.00;100869.34;8258175;28;20058;-62
2023/04/26 01:23:12;;;;;;;8.18;3.33;;;;;;;3.90;100.00;100870.06;8249965;28;20030;-62
2023/04/26 01:27:13;;;;;;;12.50;4.85;;;;;;;4.05;99.82;100874.50;8256111;28;20049;-62
2023/04/26 01:31:15;;;;;;;13.18;4.70;;;;;;;4.21;98.74;100876.28;8254150;28;20591;-62
2023/04/26 01:35:16;;;;;;;14.70;4.38;;;;;;;4.44;98.19;100879.28;8257721;28;20037;-62
2023/04/26 01:39:16;;;;;;;13.57;4.50;;;;;;;4.49;96.07;100874.50;8258199;28;20072;-62
2023/04/26 01:43:19;;;;;;;13.02;4.55;;;;;;;4.58;95.45;100867.72;8257488;28;20038;-62
2023/04/26 01:47:20;;;;;;;6.40;3.40;;;;;;;4.44;96.23;100862.34;8263948;28;20420;-62
2023/04/26 01:51:21;;;;;;;16.35;4.43;;;;;;;3.99;98.14;100869.53;8263241;28;20042;-62
2023/04/26 01:55:21;;;;;;;9.85;4.05;;;;;;;3.66;100.00;100871.47;8263074;28;20035;-62
2023/04/26 01:59:21;;;;;;;9.00;4.38;;;;;;;3.92;100.00;100878.00;8260265;28;20049;-62
2023/04/26 02:03:22;;;;;;;14.50;3.88;;;;;;;3.61;99.56;100868.22;8263008;28;20046;-62
2023/04/26 02:07:24;;;;;;;9.13;4.25;;;;;;;3.50;99.72;100878.66;8264179;28;20177;-62
2023/04/26 02:11:30;;;;;;;13.88;4.40;;;;;;;3.51;100.00;100872.34;8262579;28;20472;-62
2023/04/26 02:15:31;;;;;;;9.93;5.50;;;;;;;3.42;100.00;100872.03;8263206;28;20069;-61
2023/04/26 02:19:32;;;;;;;15.10;6.43;;;;;;;3.50;100.00;100869.78;8263551;28;20129;-62
2023/04/26 02:23:32;;;;;;;9.23;5.35;;;;;;;3.60;99.94;100866.50;8263084;28;20042;-62
2023/04/26 02:27:32;;;;;;;13.93;6.18;;;;;;;3.78;100.00;100864.56;8262780;28;20092;-62
2023/04/26 02:31:34;;;;;;;12.05;6.57;;;;;;;3.85;100.00;100865.94;8259051;28;20065;-62
2023/04/26 02:35:36;;;;;;;17.02;6.47;;;;;;;3.71;100.00;100868.53;8260784;28;20034;-62
2023/04/26 02:39:38;;;;;;;15.65;7.03;;;;;;;3.80;100.00;100866.22;8258590;28;20046;-62
2023/04/26 02:43:38;;;;;;;20.10;7.72;;;;;;;3.60;100.00;100869.16;8259348;28;20134;-62
2023/04/26 02:47:39;;;;;;;20.70;6.95;;;;;;;3.80;100.00;100873.34;8261025;28;20138;-62
2023/04/26 02:51:40;;;;;;;21.35;7.43;;;;;;;3.87;100.00;100870.25;8261821;28;20038;-62
2023/04/26 02:55:40;;;;;;;17.95;8.15;;;;;;;4.07;100.00;100871.75;8261749;28;20508;-62
2023/04/26 02:59:42;;;;;;;18.92;7.45;;;;;;;4.16;100.00;100860.50;8258024;28;20125;-59
2023/04/26 03:03:43;;;;;;;26.48;8.13;;;;;;;4.13;99.68;100854.44;8251496;28;20106;-57
2023/04/26 03:07:43;;;;;;;18.92;7.60;;;;;;;3.98;99.04;100859.78;8275261;28;20034;-58
2023/04/26 03:11:44;;;;;;;20.33;8.40;;;;;;;3.64;100.00;100845.81;8261210;28;20493;-57
2023/04/26 03:15:45;;;;;;;19.70;9.02;;;;;;;3.33;100.00;100857.38;8259723;28;20045;-58
2023/04/26 03:19:46;;;;;;;23.10;8.73;;;;;;;3.64;100.00;100851.16;8260845;28;20166;-58
2023/04/26 03:23:46;;;;;;;17.90;8.43;;;;;;;3.53;100.00;100849.09;8260649;28;20436;-57
2023/04/26 03:27:49;;;;;;;18.67;8.63;;;;;;;3.77;100.00;100836.97;8256318;28;20041;-58
2023/04/26 03:31:50;;;;;;;16.80;8.23;;;;;;;3.35;100.00;100838.56;8260143;28;20057;-58
2023/04/26 03:35:50;;;;;;;25.90;8.15;;;;;;;3.14;100.00;100835.31;8260004;28;20093;-58
2023/04/26 03:39:52;;;;;;;23.48;8.90;;;;;;;2.99;100.00;100841.50;8261298;28;20039;-58
2023/04/26 03:43:55;;;;;;;22.10;8.90;;;;;;;2.89;100.00;100848.31;8260426;28;20041;-57
2023/04/26 03:47:57;;;;;;;24.35;8.50;;;;;;;2.76;100.00;100849.94;8260193;28;20109;-58
2023/04/26 03:51:57;;;;;;;19.25;7.93;;;;;;;2.71;100.00;100846.66;8258027;28;20161;-57
2023/04/26 03:55:58;;;;;;;24.75;9.23;;;;;;;2.50;100.00;100850.47;8260818;28;20116;-58
2023/04/26 03:59:59;;;;;;;24.73;9.70;;;;;;;2.82;100.00;100849.59;8257011;28;20439;-58
2023/04/26 04:04:00;;;;;;;19.73;8.27;;;;;;;2.62;100.00;100855.16;8258701;28;20521;-58
2023/04/26 04:08:02;;;;;;;26.02;8.50;;;;;;;2.54;100.00;100848.50;8253661;28;20493;-57
2023/04/26 04:12:05;;;;;;;25.70;9.85;;;;;;;2.52;100.00;100855.72;8251205;28;20180;-62
2023/04/26 04:16:08;;;;;;;26.35;9.90;;;;;;;2.72;100.00;100861.75;8259743;28;20122;-59
2023/04/26 04:20:10;;;;;;;31.58;10.52;;;;;;;2.75;100.00;100863.38;8242600;28;20410;-58
2023/04/26 04:24:11;;;;;;;28.15;10.70;;;;;;;2.89;100.00;100861.66;8257413;28;20049;-61
2023/04/26 04:28:12;;;;;;;18.98;9.10;;;;;;;2.98;100.00;100865.63;8259562;28;20050;-61
2023/04/26 04:32:14;;;;;;;23.10;10.07;;;;;;;2.64;100.00;100857.75;8262186;28;20489;-61
2023/04/26 04:36:16;;;;;;;20.27;9.07;;;;;;;2.72;100.00;100863.53;8236528;28;20041;-61
2023/04/26 04:40:17;;;;;;;18.27;8.68;;;;;;;2.60;100.00;100869.53;8243910;28;20038;-61
2023/04/26 04:44:21;;;;;;;21.75;9.00;;;;;;;2.81;100.00;100873.72;8257790;28;20043;-61
2023/04/26 04:48:22;;;;;;;20.90;9.43;;;;;;;3.15;100.00;100879.81;8272696;28;20038;-61
2023/04/26 04:52:23;;;;;;;24.23;10.07;;;;;;;3.44;100.00;100873.66;8255678;28;20038;-58
2023/04/26 04:56:24;;;;;;;34.15;16.95;;;;;;;3.71;100.00;100874.75;8258795;28;20118;-58
2023/04/26 05:00:26;;;;;;;38.55;19.40;;;;;;;3.92;100.00;100884.22;8257941;28;20516;-57
2023/04/26 05:04:33;;;;;;;38.20;17.33;;;;;;;4.29;100.00;100882.00;8251747;28;20043;-58
2023/04/26 05:08:35;;;;;;;20.60;8.55;;;;;;;4.34;98.85;100885.28;8234439;28;20126;-57
2023/04/26 05:12:38;;;;;;;19.23;8.25;;;;;;;4.51;97.41;100890.47;8226489;28;20106;-58
2023/04/26 05:16:38;;;;;;;22.35;8.43;;;;;;;4.64;96.45;100894.13;8257222;28;20061;-58
2023/04/26 05:20:40;;;;;;;19.58;7.60;;;;;;;4.67;95.78;100904.66;8251613;28;20042;-58
2023/04/26 05:24:40;;;;;;;20.38;8.95;;;;;;;4.64;96.24;100899.47;8258538;28;20483;-58
2023/04/26 05:28:41;;;;;;;20.63;9.07;;;;;;;4.85;97.90;100900.84;8253384;28;20430;-60
2023/04/26 05:32:55;;;;;;;22.02;9.18;;;;;;;5.26;95.85;100912.47;8240602;28;20042;-58
2023/04/26 05:37:16;;;;;;;21.17;9.00;;;;;;;5.43;94.54;100914.97;8245786;28;20038;-61
2023/04/26 05:41:16;;;;;;;23.75;9.20;;;;;;;5.81;94.18;100908.84;8268667;28;20057;-63
2023/04/26 05:45:17;;;;;;;19.65;9.65;;;;;;;5.96;91.69;100906.97;8255060;28;20546;-62
2023/04/26 05:49:18;;;;;;;29.13;10.93;;;;;;;6.49;90.15;100916.78;8248657;28;20088;-63
2023/04/26 05:53:19;;;;;;;26.83;11.77;;;;;;;6.55;88.90;100917.22;8254338;28;20042;-63
2023/04/26 05:57:19;;;;;;;33.45;13.65;;;;;;;6.57;88.83;100920.66;8255766;28;20038;-61
2023/04/26 06:01:21;;;;;;;29.08;13.35;;;;;;;7.09;88.01;100926.81;8253888;28;20038;-61
2023/04/26 06:05:21;;;;;;;37.40;12.93;;;;;;;7.26;85.15;100915.69;8247898;28;20066;-61
2023/04/26 06:09:22;;;;;;;31.17;11.82;;;;;;;7.53;85.42;100924.47;8252990;28;20057;-62
2023/04/26 06:13:22;;;;;;;22.35;9.60;;;;;;;7.90;82.51;100926.16;8252479;28;20039;-61
2023/04/26 06:17:24;;;;;;;28.20;11.43;;;;;;;8.01;83.09;100926.22;8231663;28;20457;-58
2023/04/26 06:21:26;;;;;;;29.83;11.23;;;;;;;8.29;80.26;100930.44;8249923;28;20444;-58
2023/04/26 06:25:26;;;;;;;27.08;10.73;;;;;;;8.63;80.17;100939.50;8254463;28;20133;-58
2023/04/26 06:29:31;;;;;;;29.02;11.13;;;;;;;8.80;80.04;100936.34;8251490;28;20529;-58
2023/04/26 06:33:31;;;;;;;;;;;;;;;8.72;81.23;100938.78;8251120;28;20065;-58
2023/04/26 06:37:32;;;;;;;27.98;11.95;;;;;;;8.85;81.02;100931.47;8242540;28;19953;-58
2023/04/26 06:41:32;;;;;;;28.83;11.27;;;;;;;9.28;80.24;100948.69;8252770;28;20714;-58
2023/04/26 06:45:33;;;;;;;30.98;11.38;;;;;;;9.24;81.30;100939.13;8259998;28;20042;-59
2023/04/26 06:49:35;;;;;;;25.10;10.95;;;;;;;9.44;78.92;100946.47;8258955;28;20035;-58
2023/04/26 06:53:35;;;;;;;26.17;9.50;;;;;;;9.25;78.27;100939.00;8259645;28;20038;-61
2023/04/26 06:57:36;;;;;;;24.42;10.73;;;;;;;9.48;77.48;100923.66;8258499;28;20077;-62
2023/04/26 07:01:37;;;;;;;31.50;10.43;;;;;;;9.62;77.73;100932.38;8266535;28;20031;-62
2023/04/26 07:05:38;;;;;;;27.67;8.93;;;;;;;9.54;76.08;100939.34;8258541;28;20049;-62
2023/04/26 07:09:39;;;;;;;23.15;10.48;;;;;;;9.45;76.19;100940.94;8256922;28;20188;-61
2023/04/26 07:13:40;;;;;;;27.70;10.45;;;;;;;9.64;77.58;100943.03;8255618;28;20034;-61
2023/04/26 07:17:40;;;;;;;25.48;9.38;;;;;;;9.67;77.19;100935.53;8258723;28;20065;-62
2023/04/26 07:21:41;;;;;;;23.30;6.90;;;;;;;9.52;73.66;100941.31;8240545;28;20404;-61
2023/04/26 07:25:41;;;;;;;23.70;7.75;;;;;;;9.60;71.98;100945.13;8259049;28;20038;-61
2023/04/26 07:29:42;;;;;;;22.20;9.52;;;;;;;9.81;73.38;100942.50;8268989;28;20061;-58
2023/04/26 07:33:42;;;;;;;25.52;10.07;;;;;;;10.20;74.09;100944.66;8258732;28;20042;-59
2023/04/26 07:37:43;;;;;;;21.85;9.50;;;;;;;10.47;73.50;100952.28;8244788;28;20039;-59
2023/04/26 07:41:44;;;;;;;25.15;10.65;;;;;;;10.62;74.57;100941.06;8242411;28;20126;-59
2023/04/26 07:45:44;;;;;;;25.00;10.25;;;;;;;10.43;72.99;100943.56;8284240;28;20074;-59
2023/04/26 07:49:44;;;;;;;30.73;10.60;;;;;;;10.15;74.31;100946.03;8234384;28;20382;-58
2023/04/26 07:53:45;;;;;;;22.83;9.32;;;;;;;10.11;73.27;100940.03;8253591;28;20432;-58
2023/04/26 07:57:45;;;;;;;24.50;9.40;;;;;;;10.40;73.77;100935.72;8255903;28;20121;-58
2023/04/26 08:01:46;;;;;;;20.00;5.50;;;;;;;10.24;69.01;100935.31;8255710;28;20039;-59
2023/04/26 08:05:46;;;;;;;17.85;6.00;;;;;;;10.48;67.11;100938.66;8245827;28;20378;-58
2023/04/26 08:09:47;;;;;;;23.15;5.28;;;;;;;10.73;66.54;100926.63;8257322;28;20038;-58
2023/04/26 08:13:48;;;;;;;16.98;6.05;;;;;;;10.70;66.14;100932.28;8251232;28;20038;-58
2023/04/26 08:17:52;;;;;;;21.17;6.55;;;;;;;11.21;64.80;100923.19;8248539;28;20051;-58
2023/04/26 08:21:52;;;;;;;14.40;6.50;;;;;;;11.02;64.84;100933.94;8256360;28;20093;-58
2023/04/26 08:25:52;;;;;;;28.38;7.47;;;;;;;10.58;66.69;100923.34;8257627;28;20122;-58
2023/04/26 08:29:53;;;;;;;18.20;6.95;;;;;;;11.10;65.97;100925.97;8253608;28;20117;-58
2023/04/26 08:33:53;;;;;;;16.20;6.00;;;;;;;11.48;64.38;100923.47;8257021;28;20038;-59
2023/04/26 08:37:54;;;;;;;17.83;5.30;;;;;;;11.35;63.27;100922.81;8256913;28;20038;-58
2023/04/26 08:42:03;;;;;;;11.48;3.95;;;;;;;11.58;62.06;100926.19;8236061;28;20520;-58
2023/04/26 08:46:08;;;;;;;13.27;5.07;;;;;;;11.69;60.68;100928.84;8225122;28;20045;-58
2023/04/26 08:50:11;;;;;;;13.60;5.00;;;;;;;11.10;61.76;100939.50;8255859;28;20049;-58
2023/04/26 08:54:12;;;;;;;14.00;5.18;;;;;;;11.26;62.27;100939.88;8266739;28;20057;-59
2023/04/26 08:58:13;;;;;;;9.82;4.15;;;;;;;11.53;62.28;100937.44;8289007;28;20037;-59
2023/04/26 09:02:18;;;;;;;8.85;3.70;;;;;;;11.52;59.88;100934.88;8259033;28;20054;-58
2023/04/26 09:06:18;;;;;;;8.85;4.93;;;;;;;11.41;62.70;100941.25;8255982;28;20038;-58
2023/04/26 09:10:20;;;;;;;14.02;4.30;;;;;;;11.60;61.18;100935.94;8255306;28;20121;-58
2023/04/26 09:14:21;;;;;;;13.23;4.03;;;;;;;12.67;60.51;100933.25;8255764;28;20069;-58
2023/04/26 09:18:22;;;;;;;19.75;4.55;;;;;;;12.52;58.75;100929.25;8249588;28;20042;-58
2023/04/26 09:22:27;;;;;;;13.85;4.40;;;;;;;11.38;60.84;100929.84;8248581;28;20050;-58
2023/04/26 09:26:28;;;;;;;11.02;3.38;;;;;;;11.54;61.12;100914.81;8255683;28;20048;-58
2023/04/26 09:30:30;;;;;;;9.65;3.40;;;;;;;11.42;58.18;100921.31;8254768;28;20320;-58
2023/04/26 09:34:44;;;;;;;15.00;3.33;;;;;;;11.61;58.10;100915.97;8255901;28;20066;-58
2023/04/26 09:38:44;;;;;;;;;;;;;;;11.51;59.80;100915.09;8256069;28;20034;-62
2023/04/26 09:42:45;;;;;;;12.27;3.37;;;;;;;11.88;60.03;100916.22;8255230;28;19929;-62
2023/04/26 09:46:58;;;;;;;12.70;3.53;;;;;;;12.51;58.81;100911.28;8255529;28;20273;-62
2023/04/26 09:55:25;;;;;;;15.70;3.20;;;;;;;16.89;50.17;100896.34;8320455;28;20403;-63
2023/04/26 09:59:38;;;;;;;10.80;3.33;;;;;;;17.94;48.83;100900.56;8316714;28;20124;-63
2023/04/26 10:03:40;;;;;;;9.23;2.30;;;;;;;15.53;51.56;100891.47;8314630;28;20407;-63
2023/04/26 10:07:41;;;;;;;11.13;2.00;;;;;;;15.59;50.35;100899.81;8315829;28;20034;-63
2023/04/26 10:11:41;;;;;;;6.57;1.70;;;;;;;16.72;45.74;100891.94;8308372;28;20037;-61
2023/04/26 10:15:42;;;;;;;1.88;1.33;;;;;;;18.54;45.06;100876.91;8302016;28;20390;-62
2023/04/26 10:19:43;;;;;;;4.22;1.27;;;;;;;17.81;42.90;100889.31;8292090;28;20038;-62
2023/04/26 10:23:44;;;;;;;5.47;2.22;;;;;;;17.51;45.39;100890.13;8308875;28;20065;-62
2023/04/26 10:32:04;;;;;;;8.48;1.55;;;;;;;15.64;44.79;100881.13;8314963;28;20432;-62
2023/04/26 10:36:14;;;;;;;10.77;2.05;;;;;;;15.58;47.49;100889.94;8316511;28;20041;-62
2023/04/26 10:40:24;;;;;;;4.25;1.48;;;;;;;15.98;46.98;100872.03;8315912;28;20050;-62
2023/04/26 10:44:41;;;;;;;4.80;1.33;;;;;;;17.94;43.14;100884.13;8316161;28;20061;-62
2023/04/26 10:48:41;;;;;;;3.25;1.27;;;;;;;17.62;43.71;100878.78;8314928;28;20560;-61
2023/04/26 10:57:15;;;;;;;5.95;1.80;;;;;;;15.78;48.33;100874.19;8408305;27;20389;-61
2023/04/26 11:01:17;;;;;;;7.97;2.15;;;;;;;15.17;49.30;100877.09;8373401;28;20048;-61
2023/04/26 11:05:54;;;;;;;6.93;1.98;;;;;;;14.31;48.30;100871.69;8365864;28;20117;-62
2023/04/26 11:09:54;;;;;;;7.85;2.40;;;;;;;14.79;51.87;100872.06;8365203;28;20037;-62
2023/04/26 11:13:55;;;;;;;13.68;3.00;;;;;;;15.32;48.10;100859.16;8364944;28;20037;-62
2023/04/26 11:17:56;;;;;;;10.35;2.85;;;;;;;15.95;48.22;100856.00;8425126;27;20309;-62
2023/04/26 11:21:59;;;;;;;8.75;2.55;;;;;;;16.25;47.97;100853.50;8377667;27;20032;-62
2023/04/26 11:26:03;;;;;;;8.60;2.10;;;;;;;17.01;45.98;100851.28;8398653;27;20567;-62
2023/04/26 11:30:05;;;;;;;9.88;2.83;;;;;;;17.81;45.41;100842.81;8397295;27;20042;-63
2023/04/26 11:34:05;;;;;;;15.52;2.67;;;;;;;17.27;44.95;100841.81;8396857;27;20032;-62
2023/04/26 11:38:06;;;;;;;10.40;2.22;;;;;;;18.00;43.56;100830.56;8397466;27;20040;-62
2023/04/26 11:42:08;;;;;;;9.73;2.53;;;;;;;16.96;44.38;100837.31;8396658;27;20040;-62
2023/04/26 11:46:08;;;;;;;8.48;2.63;;;;;;;16.80;45.09;100826.41;8385919;27;20136;-62
2023/04/26 11:50:10;;;;;;;7.82;2.95;;;;;;;18.23;46.36;100824.06;8365574;27;20040;-62
2023/04/26 11:54:10;;;;;;;8.88;2.90;;;;;;;18.36;44.09;100821.56;8394005;27;20040;-62
2023/04/26 11:58:13;;;;;;;12.02;3.20;;;;;;;16.15;46.36;100819.19;8397166;27;20036;-62
2023/04/26 12:02:14;;;;;;;11.43;2.60;;;;;;;15.79;47.64;100837.72;8434054;27;20065;-61
2023/04/26 12:06:14;;;;;;;12.10;3.17;;;;;;;15.95;46.82;100836.91;8437932;27;20036;-63
2023/04/26 12:10:17;;;;;;;9.63;2.63;;;;;;;14.80;47.22;100835.69;8424701;28;20255;-62
2023/04/26 12:14:18;;;;;;;8.55;2.55;;;;;;;15.31;48.81;100841.06;8422982;28;20463;-62
2023/04/26 12:18:18;;;;;;;15.13;3.03;;;;;;;14.40;49.33;100834.50;8407393;28;20033;-60
2023/04/26 12:22:20;;;;;;;8.27;2.53;;;;;;;15.52;49.87;100838.81;8356871;28;20072;-59
2023/04/26 12:26:21;;;;;;;10.25;2.95;;;;;;;15.29;48.13;100837.69;8374077;28;20459;-59
2023/04/26 12:30:21;;;;;;;10.23;2.65;;;;;;;14.91;48.15;100838.13;8360007;28;20039;-59
2023/04/26 12:34:35;;;;;;;7.77;3.63;;;;;;;15.12;50.95;100827.69;8340774;28;20060;-59
2023/04/26 12:38:36;;;;;;;11.55;2.75;;;;;;;15.23;48.78;100822.00;8340934;28;20160;-59
2023/04/26 12:42:37;;;;;;;11.30;2.88;;;;;;;15.03;50.51;100820.50;8339889;28;20099;-59
2023/04/26 12:46:37;;;;;;;7.85;2.53;;;;;;;15.33;48.90;100828.16;8394006;28;20036;-59
2023/04/26 12:50:38;;;;;;;10.70;2.97;;;;;;;15.45;51.48;100815.97;8415496;28;20066;-59
2023/04/26 12:54:38;;;;;;;8.88;3.40;;;;;;;14.59;49.23;100818.00;8368668;28;20482;-59
2023/04/26 12:58:39;;;;;;;8.25;3.20;;;;;;;13.75;49.92;100824.84;8384200;28;20159;-59
2023/04/26 13:02:40;;;;;;;10.05;3.38;;;;;;;13.43;49.84;100819.91;8360583;28;20033;-59
2023/04/26 13:06:41;;;;;;;8.52;2.85;;;;;;;13.54;50.81;100816.09;8372729;28;20047;-60
2023/04/26 13:10:41;;;;;;;7.00;3.45;;;;;;;13.68;50.21;100816.47;8389143;28;20039;-61
2023/04/26 13:14:42;;;;;;;12.65;3.47;;;;;;;13.71;51.09;100823.44;8387280;28;20540;-60
2023/04/26 13:18:42;;;;;;;10.05;3.95;;;;;;;13.54;51.32;100816.97;8388618;28;20059;-60
2023/04/26 13:22:42;;;;;;;9.60;3.67;;;;;;;13.33;51.71;100818.25;8395115;28;20480;-60
2023/04/26 13:26:43;;;;;;;8.63;3.80;;;;;;;13.09;52.50;100820.66;8355812;28;20065;-60
2023/04/26 13:30:43;;;;;;;10.00;4.30;;;;;;;13.01;52.37;100825.94;8369620;28;20044;-59
2023/04/26 13:34:44;;;;;;;11.38;4.03;;;;;;;12.69;52.41;100833.59;8371925;28;20487;-60
2023/04/26 13:38:45;;;;;;;7.72;3.95;;;;;;;12.95;53.20;100824.66;8372083;28;20113;-59
2023/04/26 13:42:45;;;;;;;6.90;3.72;;;;;;;13.49;53.10;100813.00;8372361;28;20094;-59
2023/04/26 13:46:46;;;;;;;8.85;3.95;;;;;;;13.72;53.07;100803.41;8372053;28;20115;-59
2023/04/26 13:50:46;;;;;;;8.70;4.75;;;;;;;13.32;52.50;100816.50;8371517;28;20051;-59
2023/04/26 13:54:47;;;;;;;7.30;3.17;;;;;;;14.32;58.39;100812.69;8370542;28;20032;-59
2023/04/26 13:58:47;;;;;;;8.95;3.90;;;;;;;13.65;54.05;100824.06;8369790;28;20044;-59
2023/04/26 14:02:50;;;;;;;7.82;3.72;;;;;;;13.22;51.99;100804.84;8375496;28;20473;-59
2023/04/26 14:06:51;;;;;;;8.23;3.83;;;;;;;13.70;54.09;100802.72;8368599;28;20465;-58
2023/04/26 14:10:52;;;;;;;10.23;4.00;;;;;;;13.11;52.76;100807.75;8368942;28;20120;-60
2023/04/26 14:14:52;;;;;;;14.52;5.30;;;;;;;13.16;52.86;100814.47;8354403;28;20040;-60
2023/04/26 14:18:53;;;;;;;9.45;3.78;;;;;;;13.08;51.82;100795.34;8354276;28;20094;-60
2023/04/26 14:22:53;;;;;;;10.10;4.28;;;;;;;13.58;57.08;100803.94;8368357;28;20044;-58
2023/04/26 14:26:53;;;;;;;10.75;3.80;;;;;;;13.30;52.82;100802.25;8342351;28;20040;-59
2023/04/26 14:30:54;;;;;;;10.15;4.07;;;;;;;13.44;54.26;100799.00;8367382;28;20041;-59
2023/04/26 14:34:55;;;;;;;16.88;5.28;;;;;;;13.57;54.59;100794.94;8369126;28;20036;-59
2023/04/26 14:38:55;;;;;;;12.02;3.83;;;;;;;13.34;51.81;100788.22;8370336;28;20587;-59
2023/04/26 14:42:55;;;;;;;41.60;9.75;;;;;;;13.38;54.24;100805.06;8369662;28;20033;-59
2023/04/26 14:46:56;;;;;;;13.57;4.30;;;;;;;13.50;52.36;100787.53;8370038;28;20051;-59
2023/04/26 14:50:58;;;;;;;8.82;3.95;;;;;;;13.50;52.33;100782.97;8367605;28;20487;-59
2023/04/26 14:54:58;;;;;;;8.30;3.92;;;;;;;13.13;51.35;100773.19;8391791;28;20546;-59
2023/04/26 14:59:00;;;;;;;9.80;4.00;;;;;;;12.89;51.19;100781.84;8367010;28;20589;-59
2023/04/26 15:03:00;;;;;;;8.50;4.82;;;;;;;12.82;51.39;100779.88;8380928;28;20064;-58
2023/04/26 15:07:01;;;;;;;13.70;4.60;;;;;;;12.58;52.24;100787.66;8383532;28;20052;-57
2023/04/26 15:11:03;;;;;;;11.13;4.95;;;;;;;12.90;53.29;100774.56;8378094;28;20076;-58
2023/04/26 15:15:03;;;;;;;10.27;4.45;;;;;;;13.05;53.06;100770.38;8350645;28;20126;-58
2023/04/26 15:19:04;;;;;;;8.57;4.13;;;;;;;12.99;52.32;100770.94;8365682;28;20064;-58
2023/04/26 15:23:05;;;;;;;8.55;4.15;;;;;;;12.98;52.93;100763.78;8371466;28;20048;-57
2023/04/26 15:27:05;;;;;;;6.65;4.10;;;;;;;13.05;53.33;100765.78;8353819;28;20499;-58
2023/04/26 15:31:08;;;;;;;8.50;4.32;;;;;;;12.81;51.99;100775.44;8355277;28;20513;-58
2023/04/26 15:35:12;;;;;;;13.40;5.18;;;;;;;12.96;53.69;100765.81;8333899;28;20120;-58
2023/04/26 15:39:12;;;;;;;6.85;4.13;;;;;;;12.88;53.56;100768.41;8339818;28;20495;-58
2023/04/26 15:43:13;;;;;;;12.63;4.53;;;;;;;12.78;53.00;100762.19;8363913;28;20059;-58
2023/04/26 15:47:14;;;;;;;10.50;4.18;;;;;;;13.13;55.61;100762.31;8390982;28;20036;-58
2023/04/26 15:51:14;;;;;;;15.55;4.43;;;;;;;13.24;55.01;100762.97;8385078;28;20060;-58
2023/04/26 15:55:15;;;;;;;8.65;4.15;;;;;;;13.05;53.68;100765.78;8373442;28;20037;-60
2023/04/26 15:59:15;;;;;;;9.48;4.15;;;;;;;13.00;53.92;100773.53;8387010;28;20496;-61
2023/04/26 16:03:16;;;;;;;9.18;4.68;;;;;;;12.70;54.62;100770.19;8323357;28;20035;-61
2023/04/26 16:07:17;;;;;;;11.93;5.10;;;;;;;12.28;55.83;100777.88;8325562;28;20036;-61
2023/04/26 16:11:17;;;;;;;14.68;4.70;;;;;;;12.30;55.41;100777.72;8348430;28;20037;-59
2023/04/26 16:15:17;;;;;;;14.25;5.28;;;;;;;12.16;55.45;100780.88;8338836;28;20067;-60
2023/04/26 16:19:19;;;;;;;11.57;4.78;;;;;;;12.15;55.29;100776.44;8363123;28;20041;-61
2023/04/26 16:23:20;;;;;;;14.38;5.03;;;;;;;12.28;55.04;100775.16;8379228;28;20552;-61
2023/04/26 16:27:25;;;;;;;12.02;4.72;;;;;;;12.38;55.03;100769.72;8379709;28;20037;-61
2023/04/26 16:31:26;;;;;;;14.05;5.07;;;;;;;12.27;54.10;100772.59;8388820;28;20490;-61
2023/04/26 16:35:26;;;;;;;11.73;4.60;;;;;;;12.17;53.44;100769.88;8388280;28;20119;-60
2023/04/26 16:39:27;;;;;;;11.13;4.80;;;;;;;12.16;53.65;100770.03;8370311;28;20045;-60
2023/04/26 16:43:28;;;;;;;10.85;4.30;;;;;;;12.26;54.59;100765.47;8369519;28;20051;-60
2023/04/26 16:47:29;;;;;;;9.50;4.53;;;;;;;12.43;54.85;100778.25;8388343;28;20056;-62
2023/04/26 16:51:29;;;;;;;11.70;5.03;;;;;;;12.52;54.07;100756.56;8386160;28;20040;-61
2023/04/26 16:55:29;;;;;;;10.43;5.90;;;;;;;12.33;53.62;100762.03;8384903;28;20036;-62
2023/04/26 16:59:30;;;;;;;12.02;5.05;;;;;;;12.12;53.33;100768.59;8379913;28;20045;-62
2023/04/26 17:03:30;;;;;;;11.23;5.05;;;;;;;12.16;54.35;100761.88;8354590;28;20049;-62
2023/04/26 17:07:31;;;;;;;10.65;4.80;;;;;;;12.09;54.84;100758.91;8353034;28;20041;-59
2023/04/26 17:11:32;;;;;;;7.95;4.38;;;;;;;12.17;54.84;100766.34;8354223;28;20044;-59
2023/04/26 17:15:34;;;;;;;7.57;4.82;;;;;;;12.07;54.44;100765.50;8351625;28;20045;-59
2023/04/26 17:19:34;;;;;;;13.25;5.38;;;;;;;12.03;55.43;100770.34;8353460;28;20515;-59
2023/04/26 17:23:34;;;;;;;17.67;5.95;;;;;;;11.90;55.10;100767.91;8379610;28;20390;-59
2023/04/26 17:27:35;;;;;;;10.98;5.40;;;;;;;11.95;54.49;100772.06;8386955;28;20661;-59
2023/04/26 17:31:35;;;;;;;10.57;4.90;;;;;;;12.00;55.12;100776.03;8362596;28;20033;-61
2023/04/26 17:35:36;;;;;;;14.07;5.10;;;;;;;11.93;54.52;100779.47;8352793;28;20033;-62
2023/04/26 17:39:36;;;;;;;11.38;5.32;;;;;;;11.86;54.66;100769.19;8353553;28;20033;-61
2023/04/26 17:43:37;;;;;;;9.05;4.35;;;;;;;11.94;54.18;100771.19;8353198;28;20144;-61
2023/04/26 17:47:37;;;;;;;9.07;4.68;;;;;;;11.82;55.74;100778.63;8352571;28;20032;-61
2023/04/26 17:51:38;;;;;;;15.32;4.40;;;;;;;11.67;55.15;100765.63;8363738;28;20044;-62
2023/04/26 17:55:39;;;;;;;7.53;4.07;;;;;;;11.57;55.13;100778.28;8384766;28;20037;-61
2023/04/26 17:59:39;;;;;;;8.50;4.10;;;;;;;11.58;54.84;100780.84;8386441;28;20045;-61
2023/04/26 18:03:40;;;;;;;8.07;4.40;;;;;;;11.47;55.18;100778.25;8384356;28;20047;-61
2023/04/26 18:07:41;;;;;;;8.07;4.20;;;;;;;11.39;55.04;100778.09;8385527;28;20040;-61
2023/04/26 18:11:46;;;;;;;10.85;4.30;;;;;;;11.31;54.38;100783.34;8383794;28;20450;-60
2023/04/26 18:15:46;;;;;;;10.57;4.05;;;;;;;11.29;54.75;100785.31;8416043;28;20043;-61
2023/04/26 18:19:47;;;;;;;10.60;3.65;;;;;;;11.21;55.07;100795.13;8384096;28;20037;-61
2023/04/26 18:23:48;;;;;;;6.95;3.58;;;;;;;11.20;55.73;100790.72;8384883;28;20106;-61
2023/04/26 18:27:48;;;;;;;9.68;3.78;;;;;;;11.13;55.49;100795.81;8366783;28;20068;-61
2023/04/26 18:31:51;;;;;;;10.40;3.75;;;;;;;11.07;56.58;100800.94;8349118;28;20040;-61
2023/04/26 18:35:51;;;;;;;11.15;4.32;;;;;;;11.03;57.01;100811.19;8363796;28;20510;-60
2023/04/26 18:39:52;;;;;;;6.03;3.60;;;;;;;11.08;56.18;100797.25;8369527;28;20048;-60
2023/04/26 18:43:52;;;;;;;9.30;4.35;;;;;;;11.08;56.69;100808.94;8383798;28;20451;-60
2023/04/26 18:47:53;;;;;;;14.95;4.15;;;;;;;11.07;57.00;100812.59;8383484;28;20109;-61
2023/04/26 18:51:56;;;;;;;7.70;3.67;;;;;;;11.07;57.56;100815.31;8375377;28;20171;-60